Humidity-temperature Sensor

Selected Measurement Type: Air Temperature

 
Air Temperature [°C]     6 entries per hour
Showing data from 10/20/2015 (11:30:00 Z) to 10/19/2015 (00:01:00 Z)
Previous Next [ Day | 3-Days | 7-Days ]
First Last
Prev [ Day | 3-Days | 7-Days ] Next
First Last

Start Time:     :
End Time:     :     
Time (in GMT) :00 :50 :40 :30 :20 :10
Previous Next [ Day | 3-Days | 7-Days ]
First Last
Prev [ Day | 3-Days | 7-Days ] Next
First Last


123 => good data
MM => data is determined as missing
-- => data not received/configured
Back to Top Back to Top
10/20/2015 12:00 to 11:10 -- -- -- 27.94 27.89 27.79
10/20/2015 11:00 to 10:10 27.91 27.84 27.80 27.73 27.88 27.94
10/20/2015 10:00 to 9:10 27.87 27.94 27.90 27.88 27.93 27.91
10/20/2015 09:00 to 8:10 27.87 27.94 28.09 28.11 28.16 28.06
10/20/2015 08:00 to 7:10 28.28 28.19 28.15 28.21 28.19 28.18
10/20/2015 07:00 to 6:10 28.23 28.21 28.26 28.35 28.33 28.28
10/20/2015 06:00 to 5:10 28.46 28.40 28.20 28.26 28.13 28.29
10/20/2015 05:00 to 4:10 28.30 28.13 28.21 28.23 28.19 28.23
10/20/2015 04:00 to 3:10 28.20 28.24 28.22 28.25 28.19 28.24
10/20/2015 03:00 to 2:10 28.23 28.31 28.27 28.31 28.30 28.29
10/20/2015 02:00 to 1:10 28.33 28.31 28.39 28.40 28.43 28.42
10/20/2015 01:00 to 0:10 28.51 28.37 28.46 28.40 28.56 28.55
10/20/2015 00:00 to 23:10 28.49 28.43 28.41 28.43 28.41 28.35
10/19/2015 23:00 to 22:10 28.43 28.53 28.45 28.39 28.56 28.41
10/19/2015 22:00 to 21:10 28.44 28.40 28.20 28.39 28.43 28.25
10/19/2015 21:00 to 20:10 28.26 28.21 28.16 28.20 28.21 28.44
10/19/2015 20:00 to 19:10 28.31 28.28 28.18 28.22 28.35 28.24
10/19/2015 19:00 to 18:10 28.31 28.18 28.35 28.38 28.50 28.13
10/19/2015 18:00 to 17:10 28.13 28.18 28.28 28.26 28.24 28.37
10/19/2015 17:00 to 16:10 28.43 28.30 28.46 28.24 28.36 28.28
10/19/2015 16:00 to 15:10 27.94 28.14 27.93 27.97 27.96 27.94
10/19/2015 15:00 to 14:10 27.91 27.79 27.85 27.84 27.74 27.83
10/19/2015 14:00 to 13:10 27.75 27.72 27.76 27.67 27.72 27.90
10/19/2015 13:00 to 12:10 27.67 27.81 27.71 27.85 27.75 27.75
10/19/2015 12:00 to 11:10 27.80 27.66 27.70 27.79 27.70 27.79
10/19/2015 11:00 to 10:10 27.79 27.78 27.82 27.87 27.88 27.98
10/19/2015 10:00 to 9:10 27.82 27.89 27.84 27.96 28.01 28.05
10/19/2015 09:00 to 8:10 27.94 28.00 27.94 28.08 28.10 28.04
10/19/2015 08:00 to 7:10 28.11 28.14 28.06 28.17 28.14 28.33
10/19/2015 07:00 to 6:10 28.21 28.19 28.18 28.17 28.19 28.23
10/19/2015 06:00 to 5:10 28.23 28.31 28.41 28.33 28.24 28.31
10/19/2015 05:00 to 4:10 28.39 28.26 28.18 28.25 28.26 28.41
10/19/2015 04:00 to 3:10 28.30 28.34 28.48 28.54 28.21 28.41
10/19/2015 03:00 to 2:10 28.51 28.47 28.59 28.76 28.90 28.75
10/19/2015 02:00 to 1:10 28.70 28.91 29.15 29.17 28.99 28.81
10/19/2015 01:00 to 0:10 28.81 28.98 29.01 28.78 28.86 28.83